createdAt,value
2019-04-29T00:01:28.209Z,4.85
2019-04-29T00:03:57.091Z,4.78
2019-04-29T00:06:25.806Z,4.73
2019-04-29T00:08:54.537Z,4.66
2019-04-29T00:11:23.323Z,4.57
2019-04-29T00:13:51.940Z,4.66
2019-04-29T00:16:45.375Z,4.56
2019-04-29T00:19:48.902Z,4.50
2019-04-29T00:22:17.406Z,4.42
2019-04-29T00:24:46.161Z,4.42
2019-04-29T00:27:15.007Z,4.51
2019-04-29T00:29:43.631Z,4.36
2019-04-29T00:32:12.246Z,4.37
2019-04-29T00:34:40.945Z,4.33
2019-04-29T00:37:27.870Z,4.50
2019-04-29T00:40:24.932Z,4.51
2019-04-29T00:43:15.936Z,4.47
2019-04-29T00:45:44.675Z,4.52
2019-04-29T00:48:13.292Z,4.47
2019-04-29T00:50:41.817Z,4.53
2019-04-29T00:53:10.448Z,4.56
2019-04-29T00:55:38.960Z,4.53
2019-04-29T00:58:07.466Z,4.52
2019-04-29T01:00:39.042Z,4.51
2019-04-29T01:03:07.753Z,4.48
2019-04-29T01:05:36.605Z,4.39
2019-04-29T01:08:05.646Z,4.32
2019-04-29T01:10:34.161Z,4.43
2019-04-29T01:13:02.863Z,4.33
2019-04-29T01:15:31.868Z,4.32
2019-04-29T01:18:00.314Z,4.20
2019-04-29T01:20:28.833Z,4.18
2019-04-29T01:22:57.362Z,4.15
2019-04-29T01:25:27.530Z,4.29
2019-04-29T01:28:06.218Z,4.24
2019-04-29T01:31:07.774Z,4.13
2019-04-29T01:33:36.553Z,4.17
2019-04-29T01:36:42.686Z,4.14
2019-04-29T01:39:12.193Z,4.22
2019-04-29T01:41:55.154Z,4.15
2019-04-29T01:44:24.420Z,4.20
2019-04-29T01:46:52.903Z,4.09
2019-04-29T01:49:21.404Z,4.04
2019-04-29T01:51:49.944Z,4.02
2019-04-29T01:54:18.665Z,3.91
2019-04-29T01:56:47.280Z,3.87
2019-04-29T01:59:15.878Z,3.84
2019-04-29T02:01:44.407Z,3.80
2019-04-29T02:04:13.171Z,3.80
2019-04-29T02:06:41.627Z,3.85
2019-04-29T02:09:15.594Z,3.89
2019-04-29T02:11:43.792Z,3.94
2019-04-29T02:14:12.371Z,3.91
2019-04-29T02:16:40.980Z,3.86
2019-04-29T02:19:09.483Z,3.76
2019-04-29T02:21:38.121Z,3.65
2019-04-29T02:24:15.825Z,3.63
2019-04-29T02:26:44.346Z,3.56
2019-04-29T02:29:12.960Z,3.62
2019-04-29T02:31:42.727Z,3.69
2019-04-29T02:34:11.355Z,3.77
2019-04-29T02:36:39.856Z,3.76
2019-04-29T02:39:19.485Z,3.78
2019-04-29T02:42:01.709Z,3.60
2019-04-29T02:44:30.291Z,3.60
2019-04-29T02:46:58.930Z,3.54
2019-04-29T02:49:27.457Z,3.53
2019-04-29T02:51:55.951Z,3.54
2019-04-29T02:54:26.106Z,3.40
2019-04-29T02:57:06.291Z,3.47
2019-04-29T02:59:39.203Z,3.52
2019-04-29T03:02:15.044Z,3.44
2019-04-29T03:05:02.188Z,3.53
2019-04-29T03:07:30.887Z,3.54
2019-04-29T03:09:59.607Z,3.51
2019-04-29T03:12:28.134Z,3.42
2019-04-29T03:14:56.633Z,3.27
2019-04-29T03:17:25.470Z,3.30
2019-04-29T03:20:12.672Z,3.42
2019-04-29T03:22:42.173Z,3.42
2019-04-29T03:25:11.274Z,3.56
2019-04-29T03:27:39.885Z,3.59
2019-04-29T03:30:08.841Z,3.54
2019-04-29T03:32:37.434Z,3.57
2019-04-29T03:35:06.162Z,3.65
2019-04-29T03:37:34.821Z,3.66
2019-04-29T03:40:03.829Z,3.57
2019-04-29T03:42:32.396Z,3.64
2019-04-29T03:45:01.129Z,3.56
2019-04-29T03:47:29.644Z,3.69
2019-04-29T03:49:58.150Z,3.71
2019-04-29T03:52:26.680Z,3.76
2019-04-29T03:54:55.174Z,3.77
2019-04-29T03:57:23.690Z,3.83
2019-04-29T03:59:52.211Z,3.80
2019-04-29T04:02:39.205Z,3.78
2019-04-29T04:05:27.699Z,3.68
2019-04-29T04:08:00.997Z,3.73
2019-04-29T04:10:29.615Z,3.76
2019-04-29T04:12:58.118Z,3.70
2019-04-29T04:15:26.632Z,3.72
2019-04-29T04:18:00.813Z,3.78
2019-04-29T04:20:29.306Z,3.78
2019-04-29T04:22:57.836Z,3.83
2019-04-29T04:25:26.438Z,3.70
2019-04-29T04:27:54.948Z,3.69
2019-04-29T04:30:23.674Z,3.66
2019-04-29T04:32:52.379Z,3.90
2019-04-29T04:35:20.979Z,3.75
2019-04-29T04:37:49.611Z,3.73
2019-04-29T04:40:24.359Z,3.78
2019-04-29T04:42:52.988Z,3.76
2019-04-29T04:45:21.488Z,3.80
2019-04-29T04:47:50.109Z,3.97
2019-04-29T04:50:18.846Z,4.02
2019-04-29T04:52:47.370Z,4.29
2019-04-29T04:55:16.377Z,4.25
2019-04-29T04:57:44.921Z,4.18
2019-04-29T05:00:20.316Z,4.17
2019-04-29T05:02:49.593Z,4.18
2019-04-29T05:05:18.375Z,4.18
2019-04-29T05:07:47.022Z,4.16
2019-04-29T05:10:15.559Z,4.17
2019-04-29T05:12:44.061Z,4.19
2019-04-29T05:15:12.777Z,4.40
2019-04-29T05:17:41.430Z,4.63
2019-04-29T05:20:10.471Z,4.56
2019-04-29T05:22:41.178Z,4.55
2019-04-29T05:25:10.100Z,4.52
2019-04-29T05:27:38.616Z,4.76
2019-04-29T05:30:07.600Z,4.66
2019-04-29T05:32:36.579Z,4.64
2019-04-29T05:35:09.020Z,4.67
2019-04-29T05:37:59.806Z,4.89
2019-04-29T05:40:57.279Z,4.81
2019-04-29T05:43:50.155Z,5.09
2019-04-29T05:46:25.974Z,5.10
2019-04-29T05:48:54.507Z,5.31
2019-04-29T05:51:41.474Z,5.44
2019-04-29T05:54:10.930Z,5.49
2019-04-29T05:56:39.665Z,5.68
2019-04-29T05:59:12.675Z,5.73
2019-04-29T06:01:42.682Z,5.77
2019-04-29T06:04:11.716Z,5.86
2019-04-29T06:06:39.939Z,5.94
2019-04-29T06:09:11.605Z,6.01
2019-04-29T06:11:39.199Z,6.04
2019-04-29T06:14:07.887Z,6.16
2019-04-29T06:17:50.368Z,6.28
2019-04-29T06:20:22.639Z,6.31
2019-04-29T06:22:49.710Z,6.45
2019-04-29T06:25:18.457Z,6.55
2019-04-29T06:27:46.976Z,6.88
2019-04-29T06:30:15.700Z,7.27
2019-04-29T06:32:44.317Z,7.43
2019-04-29T06:35:14.235Z,7.68
2019-04-29T06:37:42.955Z,7.61
2019-04-29T06:40:11.693Z,7.96
2019-04-29T06:42:40.208Z,7.94
2019-04-29T06:45:08.809Z,8.10
2019-04-29T06:47:37.316Z,8.51
2019-04-29T06:50:06.497Z,8.01
2019-04-29T06:52:35.173Z,8.23
2019-04-29T06:55:04.566Z,8.25
2019-04-29T06:57:33.083Z,8.49
2019-04-29T07:00:01.715Z,8.73
2019-04-29T07:02:30.221Z,8.54
2019-04-29T07:04:59.033Z,8.63
2019-04-29T07:07:27.672Z,9.10
2019-04-29T07:09:57.018Z,8.97
2019-04-29T07:12:25.736Z,9.88
2019-04-29T07:14:54.258Z,10.26
2019-04-29T07:17:22.792Z,9.97
2019-04-29T07:19:51.327Z,10.56
2019-04-29T07:22:20.891Z,10.81
2019-04-29T07:24:50.485Z,11.44
2019-04-29T07:27:19.182Z,11.58
2019-04-29T07:29:47.705Z,11.77
2019-04-29T07:32:16.216Z,11.91
2019-04-29T07:34:44.757Z,12.27
2019-04-29T07:37:13.285Z,12.73
2019-04-29T07:39:41.914Z,14.68
2019-04-29T07:42:10.543Z,14.58
2019-04-29T07:44:58.725Z,14.74
2019-04-29T07:47:29.471Z,13.57
2019-04-29T07:49:58.056Z,15.54
2019-04-29T07:52:26.666Z,17.02
2019-04-29T07:54:56.300Z,16.25
2019-04-29T07:57:24.935Z,16.46
2019-04-29T07:59:53.553Z,15.90
2019-04-29T08:02:22.111Z,16.58
2019-04-29T08:04:50.749Z,14.91
2019-04-29T08:07:19.459Z,16.22
2019-04-29T08:09:49.097Z,16.22
2019-04-29T08:12:18.735Z,16.54
2019-04-29T08:14:48.946Z,16.65
2019-04-29T08:17:17.483Z,15.38
2019-04-29T08:19:46.011Z,17.07
2019-04-29T08:22:18.116Z,16.60
2019-04-29T08:24:46.015Z,17.00
2019-04-29T08:27:15.856Z,16.33
2019-04-29T08:29:44.454Z,18.88
2019-04-29T08:32:13.013Z,17.48
2019-04-29T08:34:41.508Z,18.48
2019-04-29T08:37:10.140Z,17.71
2019-04-29T08:39:38.674Z,17.50
2019-04-29T08:42:10.510Z,17.48
2019-04-29T08:45:04.811Z,18.15
2019-04-29T08:47:35.650Z,19.38
2019-04-29T08:50:04.812Z,19.26
2019-04-29T08:52:33.649Z,17.72
2019-04-29T08:55:02.597Z,18.48
2019-04-29T08:57:31.720Z,17.54
2019-04-29T09:00:02.647Z,19.71
2019-04-29T09:02:34.852Z,19.64
2019-04-29T09:05:06.502Z,20.20
2019-04-29T09:07:33.321Z,18.14
2019-04-29T09:10:03.663Z,18.52
2019-04-29T09:12:32.376Z,19.46
2019-04-29T09:15:01.095Z,17.64
2019-04-29T09:17:29.611Z,17.87
2019-04-29T09:19:58.418Z,16.78
2019-04-29T09:22:29.116Z,17.18
2019-04-29T09:25:26.158Z,18.11
2019-04-29T09:27:56.394Z,17.37
2019-04-29T09:30:25.333Z,17.64
2019-04-29T09:32:54.121Z,17.53
2019-04-29T09:35:23.136Z,17.61
2019-04-29T09:37:53.972Z,17.31
2019-04-29T09:40:24.455Z,17.60
2019-04-29T09:43:14.587Z,18.28
2019-04-29T09:45:36.828Z,18.28
2019-04-29T09:48:05.580Z,19.72
2019-04-29T09:50:38.895Z,18.24
2019-04-29T09:53:04.753Z,19.25
2019-04-29T09:55:35.576Z,20.68
2019-04-29T09:58:04.422Z,20.31
2019-04-29T10:00:43.572Z,19.25
2019-04-29T10:03:29.897Z,20.46
2019-04-29T10:06:12.985Z,20.67
2019-04-29T10:08:41.762Z,21.49
2019-04-29T10:11:10.432Z,20.42
2019-04-29T10:13:39.071Z,19.28
2019-04-29T10:16:23.861Z,18.23
2019-04-29T10:19:00.640Z,18.69
2019-04-29T10:21:30.404Z,18.00
2019-04-29T10:23:59.364Z,17.25
2019-04-29T10:26:28.075Z,16.78
2019-04-29T10:29:01.280Z,18.53
2019-04-29T10:31:29.825Z,18.93
2019-04-29T10:33:58.378Z,20.97
2019-04-29T10:36:27.056Z,18.77
2019-04-29T10:38:58.582Z,17.70
2019-04-29T10:41:36.059Z,17.59
2019-04-29T10:44:29.679Z,16.72
2019-04-29T10:47:20.194Z,19.63
2019-04-29T10:49:57.585Z,19.63
2019-04-29T10:52:26.353Z,17.94
2019-04-29T10:54:56.516Z,17.59
2019-04-29T10:57:29.009Z,16.99
2019-04-29T11:00:02.955Z,18.72
2019-04-29T11:02:38.917Z,20.27
2019-04-29T11:05:25.005Z,21.36
2019-04-29T11:07:58.102Z,20.94
2019-04-29T11:10:29.043Z,18.88
2019-04-29T11:12:58.744Z,16.93
2019-04-29T11:15:32.496Z,17.34
2019-04-29T11:18:03.616Z,17.90
2019-04-29T11:20:34.103Z,17.83
2019-04-29T11:23:41.818Z,18.17
2019-04-29T11:26:29.012Z,17.05
2019-04-29T11:28:58.554Z,17.40
2019-04-29T11:31:27.369Z,18.33
2019-04-29T11:34:21.641Z,16.99
2019-04-29T11:36:50.283Z,17.26
2019-04-29T11:39:23.005Z,17.76
2019-04-29T11:41:54.628Z,18.62
2019-04-29T11:44:26.636Z,18.85
2019-04-29T11:46:53.493Z,18.86
2019-04-29T11:49:30.141Z,17.98
2019-04-29T11:52:09.333Z,20.04
2019-04-29T11:54:29.257Z,19.70
2019-04-29T11:56:58.185Z,18.38
2019-04-29T11:59:45.637Z,18.69
2019-04-29T12:02:45.516Z,17.75
2019-04-29T12:05:20.593Z,18.01
2019-04-29T12:07:49.543Z,18.54
2019-04-29T12:10:18.192Z,19.56
2019-04-29T12:12:47.768Z,19.92
2019-04-29T12:15:30.073Z,19.92
2019-04-29T12:18:11.302Z,18.52
2019-04-29T12:20:51.185Z,18.53
2019-04-29T12:23:19.738Z,19.18
2019-04-29T12:25:48.262Z,17.59
2019-04-29T12:28:19.100Z,17.96
2019-04-29T12:30:49.410Z,18.64
2019-04-29T12:33:32.530Z,17.23
2019-04-29T12:36:05.313Z,18.16
2019-04-29T12:38:53.493Z,17.71
2019-04-29T12:41:51.076Z,17.51
2019-04-29T12:44:35.509Z,18.18
2019-04-29T12:47:26.904Z,17.93
2019-04-29T12:49:53.462Z,17.55
2019-04-29T12:52:22.172Z,17.50
2019-04-29T12:54:50.677Z,16.85
2019-04-29T12:57:23.465Z,17.52
2019-04-29T12:59:49.819Z,17.61
2019-04-29T13:02:38.125Z,17.37
2019-04-29T13:05:19.812Z,17.60
2019-04-29T13:07:58.780Z,19.08
2019-04-29T13:10:47.121Z,18.95
2019-04-29T13:13:20.134Z,19.52
2019-04-29T13:16:11.889Z,19.71
2019-04-29T13:19:12.445Z,20.04
2019-04-29T13:21:39.207Z,21.70
2019-04-29T13:24:22.099Z,21.61
2019-04-29T13:26:42.562Z,23.07
2019-04-29T13:29:08.834Z,19.82
2019-04-29T13:31:39.005Z,19.47
2019-04-29T13:34:23.748Z,19.17
2019-04-29T13:36:40.706Z,18.43
2019-04-29T13:39:09.676Z,17.95
2019-04-29T13:41:56.138Z,17.94
2019-04-29T13:44:09.213Z,17.64
2019-04-29T13:46:56.035Z,17.87
2019-04-29T13:49:42.205Z,19.20
2019-04-29T13:52:11.506Z,19.08
2019-04-29T13:54:42.391Z,21.91
2019-04-29T13:57:15.595Z,24.36
2019-04-29T13:59:50.341Z,21.84
2019-04-29T14:02:31.235Z,22.08
2019-04-29T14:05:00.327Z,18.99
2019-04-29T14:07:29.229Z,20.35
2019-04-29T14:09:58.021Z,18.16
2019-04-29T14:12:48.530Z,18.21
2019-04-29T14:14:58.492Z,18.23
2019-04-29T14:17:31.791Z,17.96
2019-04-29T14:19:58.216Z,17.81
2019-04-29T14:22:27.027Z,18.52
2019-04-29T14:24:55.813Z,18.04
2019-04-29T14:27:25.608Z,17.79
2019-04-29T14:29:54.398Z,17.48
2019-04-29T14:32:34.647Z,17.75
2019-04-29T14:35:02.146Z,17.70
2019-04-29T14:37:30.716Z,16.97
2019-04-29T14:40:02.859Z,17.33
2019-04-29T14:42:37.031Z,17.02
2019-04-29T14:45:43.648Z,17.12
2019-04-29T14:48:42.174Z,16.53
2019-04-29T14:51:04.345Z,17.13
2019-04-29T14:53:32.972Z,17.52
2019-04-29T14:56:01.499Z,16.64
2019-04-29T14:58:30.040Z,16.53
2019-04-29T15:01:18.988Z,16.72
2019-04-29T15:03:52.352Z,16.29
2019-04-29T15:06:21.044Z,15.86
2019-04-29T15:08:49.707Z,16.02
2019-04-29T15:11:30.885Z,15.92
2019-04-29T15:13:54.408Z,15.65
2019-04-29T15:16:34.739Z,15.72
2019-04-29T15:19:31.412Z,15.86
2019-04-29T15:22:06.553Z,15.25
2019-04-29T15:24:35.104Z,15.25
2019-04-29T15:27:03.877Z,15.45
2019-04-29T15:29:33.552Z,15.10
2019-04-29T15:32:03.008Z,15.42
2019-04-29T15:34:31.561Z,15.11
2019-04-29T15:37:00.200Z,15.41
2019-04-29T15:39:28.812Z,15.40
2019-04-29T15:41:57.632Z,14.97
2019-04-29T15:44:26.108Z,14.86
2019-04-29T15:46:54.645Z,14.57
2019-04-29T15:49:24.733Z,14.58
2019-04-29T15:51:53.846Z,14.32
2019-04-29T15:54:25.897Z,14.29
2019-04-29T15:56:53.088Z,14.14
2019-04-29T15:59:21.992Z,14.34
2019-04-29T16:01:50.623Z,14.24
2019-04-29T16:04:32.213Z,14.32
2019-04-29T16:07:17.150Z,14.40
2019-04-29T16:09:54.575Z,14.26
2019-04-29T16:12:28.221Z,14.53
2019-04-29T16:14:56.753Z,14.53
2019-04-29T16:17:25.381Z,14.48
2019-04-29T16:19:53.897Z,14.41
2019-04-29T16:22:22.459Z,14.37
2019-04-29T16:24:51.028Z,14.62
2019-04-29T16:27:19.581Z,14.29
2019-04-29T16:29:51.698Z,14.37
2019-04-29T16:32:30.296Z,14.10
2019-04-29T16:34:58.839Z,13.98
2019-04-29T16:37:31.724Z,14.04
2019-04-29T16:39:59.810Z,13.60
2019-04-29T16:42:34.780Z,13.56
2019-04-29T16:45:06.242Z,13.51
2019-04-29T16:47:34.727Z,13.47
2019-04-29T16:50:04.705Z,13.39
2019-04-29T16:52:33.749Z,13.03
2019-04-29T16:55:04.163Z,13.05
2019-04-29T16:57:33.435Z,13.04
2019-04-29T17:00:06.367Z,13.16
2019-04-29T17:02:32.865Z,13.06
2019-04-29T17:05:01.390Z,12.98
2019-04-29T17:07:30.381Z,12.83
2019-04-29T17:10:17.841Z,12.94
2019-04-29T17:12:49.221Z,13.02
2019-04-29T17:15:25.045Z,12.88
2019-04-29T17:17:48.641Z,12.70
2019-04-29T17:20:17.364Z,12.71
2019-04-29T17:22:45.928Z,12.85
2019-04-29T17:25:16.450Z,12.84
2019-04-29T17:28:11.829Z,13.02
2019-04-29T17:30:58.228Z,13.02
2019-04-29T17:33:49.436Z,13.15
2019-04-29T17:36:13.119Z,13.06
2019-04-29T17:38:41.665Z,12.95
2019-04-29T17:41:10.197Z,13.07
2019-04-29T17:44:01.013Z,12.93
2019-04-29T17:46:48.852Z,13.17
2019-04-29T17:49:33.192Z,13.01
2019-04-29T17:52:04.264Z,12.88
2019-04-29T17:54:37.580Z,12.99
2019-04-29T17:57:26.533Z,13.02
2019-04-29T18:00:08.294Z,12.78
2019-04-29T18:03:12.680Z,12.63
2019-04-29T18:05:57.071Z,12.63
2019-04-29T18:08:54.971Z,12.56
2019-04-29T18:11:25.063Z,12.44
2019-04-29T18:13:56.945Z,12.51
2019-04-29T18:16:32.615Z,12.42
2019-04-29T18:19:08.661Z,12.42
2019-04-29T18:22:02.987Z,12.42
2019-04-29T18:24:57.499Z,12.36
2019-04-29T18:27:27.303Z,12.37
2019-04-29T18:29:56.002Z,12.29
2019-04-29T18:32:35.303Z,12.35
2019-04-29T18:34:55.965Z,12.40
2019-04-29T18:37:24.989Z,12.29
2019-04-29T18:39:53.555Z,12.26
2019-04-29T18:42:22.090Z,12.27
2019-04-29T18:44:59.351Z,12.36
2019-04-29T18:47:23.068Z,12.18
2019-04-29T18:49:51.703Z,12.31
2019-04-29T18:52:25.883Z,12.23
2019-04-29T18:54:50.656Z,12.18
2019-04-29T18:57:27.660Z,12.16
2019-04-29T18:59:49.641Z,12.33
2019-04-29T19:02:18.170Z,12.30
2019-04-29T19:04:53.418Z,12.10
2019-04-29T19:07:22.240Z,12.09
2019-04-29T19:09:50.893Z,12.00
2019-04-29T19:12:19.404Z,12.13
2019-04-29T19:14:48.045Z,12.08
2019-04-29T19:17:16.638Z,11.83
2019-04-29T19:19:45.296Z,11.79
2019-04-29T19:22:15.350Z,11.90
2019-04-29T19:24:46.269Z,11.85
2019-04-29T19:27:15.100Z,11.73
2019-04-29T19:29:44.583Z,11.70
2019-04-29T19:32:13.402Z,11.70
2019-04-29T19:34:43.446Z,11.69
2019-04-29T19:37:12.444Z,11.70
2019-04-29T19:39:41.209Z,11.64
2019-04-29T19:42:09.979Z,11.46
2019-04-29T19:44:38.716Z,11.63
2019-04-29T19:47:10.808Z,11.50
2019-04-29T19:49:40.192Z,11.67
2019-04-29T19:52:08.400Z,11.67
2019-04-29T19:54:36.923Z,11.60
2019-04-29T19:57:07.505Z,11.61
2019-04-29T19:59:36.825Z,11.57
2019-04-29T20:02:10.033Z,11.19
2019-04-29T20:04:42.535Z,11.42
2019-04-29T20:07:12.255Z,11.67
2019-04-29T20:09:42.409Z,11.57
2019-04-29T20:12:13.007Z,11.40
2019-04-29T20:14:42.753Z,11.36
2019-04-29T20:17:31.252Z,11.43
2019-04-29T20:20:10.997Z,11.33
2019-04-29T20:22:43.464Z,11.28
2019-04-29T20:25:10.441Z,11.29
2019-04-29T20:27:39.207Z,10.96
2019-04-29T20:30:16.264Z,11.17
2019-04-29T20:32:38.777Z,11.28
2019-04-29T20:35:08.893Z,11.11
2019-04-29T20:37:37.839Z,11.15
2019-04-29T20:40:06.964Z,11.26
2019-04-29T20:42:35.985Z,11.11
2019-04-29T20:45:05.505Z,11.04
2019-04-29T20:47:40.446Z,10.98
2019-04-29T20:50:09.032Z,11.03
2019-04-29T20:52:52.157Z,10.93
2019-04-29T20:55:21.430Z,11.05
2019-04-29T20:57:52.493Z,10.98
2019-04-29T21:00:25.107Z,10.91
2019-04-29T21:02:51.937Z,11.05
2019-04-29T21:05:24.453Z,11.02
2019-04-29T21:08:02.668Z,10.97
2019-04-29T21:10:24.115Z,11.05
2019-04-29T21:13:27.748Z,11.02
2019-04-29T21:16:06.836Z,10.96
2019-04-29T21:18:37.272Z,10.95
2019-04-29T21:21:07.866Z,10.87
2019-04-29T21:23:37.501Z,10.91
2019-04-29T21:26:08.690Z,10.82
2019-04-29T21:28:41.264Z,10.81
2019-04-29T21:31:07.118Z,10.76
2019-04-29T21:33:35.687Z,10.96
2019-04-29T21:36:26.501Z,10.91
2019-04-29T21:39:15.578Z,10.94
2019-04-29T21:41:58.717Z,10.84
2019-04-29T21:44:29.051Z,10.71
2019-04-29T21:46:59.625Z,10.70
2019-04-29T21:49:28.268Z,10.57
2019-04-29T21:51:56.899Z,10.75
2019-04-29T21:54:25.495Z,10.81
2019-04-29T21:56:55.577Z,10.76
2019-04-29T21:59:25.852Z,10.77
2019-04-29T22:01:56.173Z,10.73
2019-04-29T22:04:25.529Z,10.57
2019-04-29T22:06:55.670Z,10.68
2019-04-29T22:09:35.300Z,10.58
2019-04-29T22:11:55.572Z,10.52
2019-04-29T22:14:24.686Z,10.51
2019-04-29T22:16:57.093Z,10.47
2019-04-29T22:19:27.924Z,10.42
2019-04-29T22:22:00.193Z,10.31
2019-04-29T22:24:27.641Z,10.36
2019-04-29T22:27:03.956Z,10.39
2019-04-29T22:29:27.079Z,10.40
2019-04-29T22:31:56.014Z,10.41
2019-04-29T22:34:25.307Z,10.37
2019-04-29T22:36:58.291Z,10.42
2019-04-29T22:39:26.783Z,10.46
2019-04-29T22:42:07.199Z,10.39
2019-04-29T22:44:36.101Z,10.39
2019-04-29T22:47:05.680Z,10.47
2019-04-29T22:49:34.581Z,10.37
2019-04-29T22:52:03.488Z,10.37
2019-04-29T22:54:32.200Z,10.38
2019-04-29T22:57:00.832Z,10.52
2019-04-29T22:59:29.460Z,10.35
2019-04-29T23:01:57.988Z,10.40
2019-04-29T23:04:26.739Z,10.35
2019-04-29T23:06:55.346Z,10.39
2019-04-29T23:09:23.892Z,10.47
2019-04-29T23:11:52.412Z,10.49
2019-04-29T23:14:20.981Z,10.36
2019-04-29T23:16:49.628Z,10.41
2019-04-29T23:19:18.657Z,10.39
2019-04-29T23:22:05.922Z,10.32
2019-04-29T23:24:55.840Z,10.42
2019-04-29T23:27:25.859Z,10.29
2019-04-29T23:29:54.848Z,10.36
2019-04-29T23:32:25.242Z,10.31
2019-04-29T23:34:54.999Z,10.36
2019-04-29T23:37:29.152Z,10.29
2019-04-29T23:39:55.763Z,10.28
2019-04-29T23:42:26.105Z,10.21
2019-04-29T23:44:55.055Z,10.42
2019-04-29T23:47:25.766Z,10.47
2019-04-29T23:49:54.460Z,10.28
2019-04-29T23:52:23.110Z,10.37
2019-04-29T23:54:51.786Z,10.37
2019-04-29T23:57:27.340Z,10.32
